sensor_id;sensor_type;location;lat;lon;timestamp;pressure;altitude;pressure_sealevel;temperature;humidity
78444;BME280;67739;52.986;8.894;2023-06-14T00:00:42;101801.91;;;14.32;64.96
78444;BME280;67739;52.986;8.894;2023-06-14T00:03:08;101801.28;;;14.27;65.80
78444;BME280;67739;52.986;8.894;2023-06-14T00:05:38;101802.28;;;14.24;65.70
78444;BME280;67739;52.986;8.894;2023-06-14T00:08:09;101802.44;;;14.21;65.63
78444;BME280;67739;52.986;8.894;2023-06-14T00:10:38;101807.00;;;14.19;65.70
78444;BME280;67739;52.986;8.894;2023-06-14T00:13:06;101811.75;;;14.14;65.90
78444;BME280;67739;52.986;8.894;2023-06-14T00:15:32;101819.06;;;14.12;66.12
78444;BME280;67739;52.986;8.894;2023-06-14T00:17:58;101813.81;;;14.09;66.46
78444;BME280;67739;52.986;8.894;2023-06-14T00:20:27;101817.44;;;14.08;66.30
78444;BME280;67739;52.986;8.894;2023-06-14T00:22:53;101814.88;;;14.05;66.42
78444;BME280;67739;52.986;8.894;2023-06-14T00:25:20;101814.94;;;14.03;66.02
78444;BME280;67739;52.986;8.894;2023-06-14T00:27:45;101825.88;;;14.00;66.96
78444;BME280;67739;52.986;8.894;2023-06-14T00:30:11;101826.91;;;13.98;66.50
78444;BME280;67739;52.986;8.894;2023-06-14T00:32:36;101822.53;;;13.95;66.77
78444;BME280;67739;52.986;8.894;2023-06-14T00:35:02;101819.16;;;13.90;66.90
78444;BME280;67739;52.986;8.894;2023-06-14T00:37:27;101830.97;;;13.88;66.78
78444;BME280;67739;52.986;8.894;2023-06-14T00:39:53;101826.69;;;13.84;67.20
78444;BME280;67739;52.986;8.894;2023-06-14T00:42:27;101826.88;;;13.79;67.49
78444;BME280;67739;52.986;8.894;2023-06-14T00:44:53;101822.63;;;13.73;67.32
78444;BME280;67739;52.986;8.894;2023-06-14T00:47:19;101818.31;;;13.69;67.71
78444;BME280;67739;52.986;8.894;2023-06-14T00:49:46;101828.31;;;13.67;67.79
78444;BME280;67739;52.986;8.894;2023-06-14T00:52:13;101840.16;;;13.63;67.96
78444;BME280;67739;52.986;8.894;2023-06-14T00:54:40;101837.59;;;13.60;67.69
78444;BME280;67739;52.986;8.894;2023-06-14T00:57:06;101837.72;;;13.57;68.27
78444;BME280;67739;52.986;8.894;2023-06-14T00:59:32;101829.91;;;13.51;68.34
78444;BME280;67739;52.986;8.894;2023-06-14T01:01:58;101834.50;;;13.49;68.54
78444;BME280;67739;52.986;8.894;2023-06-14T01:04:26;101840.91;;;13.47;68.76
78444;BME280;67739;52.986;8.894;2023-06-14T01:12:39;101833.16;;;13.39;69.13
78444;BME280;67739;52.986;8.894;2023-06-14T01:15:07;101838.66;;;13.36;69.09
78444;BME280;67739;52.986;8.894;2023-06-14T01:17:32;101837.84;;;13.34;69.40
78444;BME280;67739;52.986;8.894;2023-06-14T01:20:01;101845.13;;;13.32;69.55
78444;BME280;67739;52.986;8.894;2023-06-14T01:22:28;101847.00;;;13.30;69.68
78444;BME280;67739;52.986;8.894;2023-06-14T01:24:54;101834.53;;;13.27;69.61
78444;BME280;67739;52.986;8.894;2023-06-14T01:27:29;101837.44;;;13.23;69.70
78444;BME280;67739;52.986;8.894;2023-06-14T01:29:55;101846.53;;;13.20;69.81
78444;BME280;67739;52.986;8.894;2023-06-14T01:32:27;101832.31;;;13.17;69.87
78444;BME280;67739;52.986;8.894;2023-06-14T01:34:53;101844.97;;;13.15;69.90
78444;BME280;67739;52.986;8.894;2023-06-14T01:37:20;101851.47;;;13.09;69.93
78444;BME280;67739;52.986;8.894;2023-06-14T01:39:47;101850.72;;;13.05;70.03
78444;BME280;67739;52.986;8.894;2023-06-14T01:42:15;101849.06;;;13.01;70.29
78444;BME280;67739;52.986;8.894;2023-06-14T01:44:42;101851.03;;;12.98;70.73
78444;BME280;67739;52.986;8.894;2023-06-14T01:47:08;101845.84;;;12.93;71.04
78444;BME280;67739;52.986;8.894;2023-06-14T01:49:34;101847.72;;;12.91;71.02
78444;BME280;67739;52.986;8.894;2023-06-14T01:52:00;101849.69;;;12.86;71.07
78444;BME280;67739;52.986;8.894;2023-06-14T01:54:26;101848.88;;;12.84;71.18
78444;BME280;67739;52.986;8.894;2023-06-14T01:56:52;101853.59;;;12.79;71.05
78444;BME280;67739;52.986;8.894;2023-06-14T01:59:18;101852.78;;;12.77;71.10
78444;BME280;67739;52.986;8.894;2023-06-14T02:01:43;101851.13;;;12.73;71.28
78444;BME280;67739;52.986;8.894;2023-06-14T02:04:09;101847.72;;;12.69;71.70
78444;BME280;67739;52.986;8.894;2023-06-14T02:06:35;101852.34;;;12.66;71.69
78444;BME280;67739;52.986;8.894;2023-06-14T02:09:01;101851.56;;;12.62;71.70
78444;BME280;67739;52.986;8.894;2023-06-14T02:11:26;101848.13;;;12.59;71.56
78444;BME280;67739;52.986;8.894;2023-06-14T02:13:52;101847.50;;;12.52;71.79
78444;BME280;67739;52.986;8.894;2023-06-14T02:16:17;101856.56;;;12.50;71.94
78444;BME280;67739;52.986;8.894;2023-06-14T02:18:43;101863.06;;;12.44;72.18
78444;BME280;67739;52.986;8.894;2023-06-14T02:21:08;101862.31;;;12.41;72.12
78444;BME280;67739;52.986;8.894;2023-06-14T02:23:34;101859.75;;;12.37;72.42
78444;BME280;67739;52.986;8.894;2023-06-14T02:25:59;101853.53;;;12.35;72.36
78444;BME280;67739;52.986;8.894;2023-06-14T02:28:24;101866.16;;;12.33;72.41
78444;BME280;67739;52.986;8.894;2023-06-14T02:30:52;101867.22;;;12.29;72.81
78444;BME280;67739;52.986;8.894;2023-06-14T02:33:18;101870.00;;;12.26;72.90
78444;BME280;67739;52.986;8.894;2023-06-14T02:35:43;101864.84;;;12.22;73.00
78444;BME280;67739;52.986;8.894;2023-06-14T02:38:11;101865.00;;;12.17;73.21
78444;BME280;67739;52.986;8.894;2023-06-14T02:40:36;101861.53;;;12.14;72.91
78444;BME280;67739;52.986;8.894;2023-06-14T02:43:02;101869.75;;;12.11;73.14
78444;BME280;67739;52.986;8.894;2023-06-14T02:45:27;101873.44;;;12.08;73.73
78444;BME280;67739;52.986;8.894;2023-06-14T02:47:52;101873.53;;;12.05;73.66
78444;BME280;67739;52.986;8.894;2023-06-14T02:50:18;101868.19;;;12.03;73.78
78444;BME280;67739;52.986;8.894;2023-06-14T02:52:43;101873.69;;;12.00;73.80
78444;BME280;67739;52.986;8.894;2023-06-14T02:55:09;101882.69;;;11.99;74.08
78444;BME280;67739;52.986;8.894;2023-06-14T02:57:35;101889.00;;;11.98;74.47
78444;BME280;67739;52.986;8.894;2023-06-14T03:00:00;101888.22;;;11.96;74.53
78444;BME280;67739;52.986;8.894;2023-06-14T03:02:25;101890.91;;;11.96;74.66
78444;BME280;67739;52.986;8.894;2023-06-14T03:04:51;101888.25;;;11.95;74.67
78444;BME280;67739;52.986;8.894;2023-06-14T03:07:16;101888.22;;;11.96;74.46
78444;BME280;67739;52.986;8.894;2023-06-14T03:09:45;101887.31;;;11.96;75.11
78444;BME280;67739;52.986;8.894;2023-06-14T03:12:10;101895.41;;;11.96;75.43
78444;BME280;67739;52.986;8.894;2023-06-14T03:14:36;101896.19;;;11.98;75.16
78444;BME280;67739;52.986;8.894;2023-06-14T03:17:04;101896.19;;;11.98;75.47
78444;BME280;67739;52.986;8.894;2023-06-14T03:19:33;101899.84;;;11.97;75.54
78444;BME280;67739;52.986;8.894;2023-06-14T03:21:58;101899.84;;;11.97;75.90
78444;BME280;67739;52.986;8.894;2023-06-14T03:24:25;101909.72;;;11.96;76.08
78444;BME280;67739;52.986;8.894;2023-06-14T03:26:52;101904.25;;;11.98;76.10
78444;BME280;67739;52.986;8.894;2023-06-14T03:29:27;101909.63;;;11.98;76.07
78444;BME280;67739;52.986;8.894;2023-06-14T03:32:01;101911.41;;;11.99;75.95
78444;BME280;67739;52.986;8.894;2023-06-14T03:34:26;101911.41;;;11.99;76.19
78444;BME280;67739;52.986;8.894;2023-06-14T03:36:52;101909.53;;;12.01;76.14
78444;BME280;67739;52.986;8.894;2023-06-14T03:39:18;101916.66;;;12.02;76.38
78444;BME280;67739;52.986;8.894;2023-06-14T03:41:43;101915.75;;;12.03;76.01
78444;BME280;67739;52.986;8.894;2023-06-14T03:44:08;101912.13;;;12.04;76.29
78444;BME280;67739;52.986;8.894;2023-06-14T03:46:34;101916.56;;;12.05;76.14
78444;BME280;67739;52.986;8.894;2023-06-14T03:48:59;101915.59;;;12.08;76.34
78444;BME280;67739;52.986;8.894;2023-06-14T03:51:25;101917.28;;;12.10;76.45
78444;BME280;67739;52.986;8.894;2023-06-14T03:53:51;101916.34;;;12.11;76.11
78444;BME280;67739;52.986;8.894;2023-06-14T03:56:16;101922.53;;;12.13;76.44
78444;BME280;67739;52.986;8.894;2023-06-14T03:58:42;101928.72;;;12.15;76.26
78444;BME280;67739;52.986;8.894;2023-06-14T04:01:10;101926.88;;;12.17;76.72
78444;BME280;67739;52.986;8.894;2023-06-14T04:03:37;101927.69;;;12.19;76.18
78444;BME280;67739;52.986;8.894;2023-06-14T04:06:11;101930.34;;;12.21;76.34
78444;BME280;67739;52.986;8.894;2023-06-14T04:08:37;101933.78;;;12.24;76.57
78444;BME280;67739;52.986;8.894;2023-06-14T04:11:04;101934.59;;;12.26;77.01
78444;BME280;67739;52.986;8.894;2023-06-14T04:13:30;101939.88;;;12.29;76.63
78444;BME280;67739;52.986;8.894;2023-06-14T04:15:59;101943.38;;;12.31;76.93
78444;BME280;67739;52.986;8.894;2023-06-14T04:18:27;101945.97;;;12.34;77.15
78444;BME280;67739;52.986;8.894;2023-06-14T04:20:52;101945.84;;;12.37;77.06
78444;BME280;67739;52.986;8.894;2023-06-14T04:23:18;101937.69;;;12.41;77.22
78444;BME280;67739;52.986;8.894;2023-06-14T04:25:44;101941.06;;;12.46;76.99
78444;BME280;67739;52.986;8.894;2023-06-14T04:28:14;101943.59;;;12.50;76.98
78444;BME280;67739;52.986;8.894;2023-06-14T04:30:43;101943.34;;;12.56;77.09
78444;BME280;67739;52.986;8.894;2023-06-14T04:33:09;101953.00;;;12.62;77.12
78444;BME280;67739;52.986;8.894;2023-06-14T04:35:36;101948.28;;;12.68;77.06
78444;BME280;67739;52.986;8.894;2023-06-14T04:38:04;101945.31;;;12.74;77.27
78444;BME280;67739;52.986;8.894;2023-06-14T04:40:35;101956.75;;;12.81;77.49
78444;BME280;67739;52.986;8.894;2023-06-14T04:43:01;101962.81;;;12.86;76.99
78444;BME280;67739;52.986;8.894;2023-06-14T04:45:30;101952.63;;;12.94;77.36
78444;BME280;67739;52.986;8.894;2023-06-14T04:47:58;101959.50;;;13.01;77.27
78444;BME280;67739;52.986;8.894;2023-06-14T04:50:25;101961.00;;;13.10;76.59
78444;BME280;67739;52.986;8.894;2023-06-14T04:52:54;101953.56;;;13.17;76.48
78444;BME280;67739;52.986;8.894;2023-06-14T04:55:20;101951.44;;;13.25;76.85
78444;BME280;67739;52.986;8.894;2023-06-14T04:57:46;101958.19;;;13.35;76.77
78444;BME280;67739;52.986;8.894;2023-06-14T05:00:14;101961.44;;;13.43;76.76
78444;BME280;67739;52.986;8.894;2023-06-14T05:02:39;101965.38;;;13.56;75.90
78444;BME280;67739;52.986;8.894;2023-06-14T05:05:06;101970.28;;;13.68;75.83
78444;BME280;67739;52.986;8.894;2023-06-14T05:07:32;101963.41;;;13.82;75.59
78444;BME280;67739;52.986;8.894;2023-06-14T05:09:59;101973.31;;;14.01;75.66
78444;BME280;67739;52.986;8.894;2023-06-14T05:12:24;101963.41;;;14.22;75.68
78444;BME280;67739;52.986;8.894;2023-06-14T05:14:50;101969.44;;;14.49;75.60
78444;BME280;67739;52.986;8.894;2023-06-14T05:17:15;101974.34;;;14.78;73.50
78444;BME280;67739;52.986;8.894;2023-06-14T05:19:42;101979.19;;;15.09;73.39
78444;BME280;67739;52.986;8.894;2023-06-14T05:22:09;101981.91;;;15.45;71.98
78444;BME280;67739;52.986;8.894;2023-06-14T05:24:35;101974.91;;;15.77;69.68
78444;BME280;67739;52.986;8.894;2023-06-14T05:27:00;101987.59;;;16.11;68.46
78444;BME280;67739;52.986;8.894;2023-06-14T05:29:26;101987.38;;;16.49;67.25
78444;BME280;67739;52.986;8.894;2023-06-14T05:31:52;101991.44;;;16.90;65.95
78444;BME280;67739;52.986;8.894;2023-06-14T05:34:18;101991.72;;;17.33;64.43
78444;BME280;67739;52.986;8.894;2023-06-14T05:36:43;101981.03;;;17.77;62.62
78444;BME280;67739;52.986;8.894;2023-06-14T05:39:08;101989.78;;;18.12;61.11
78444;BME280;67739;52.986;8.894;2023-06-14T05:41:34;101987.03;;;18.42;59.28
78444;BME280;67739;52.986;8.894;2023-06-14T05:43:59;101985.25;;;18.71;57.42
78444;BME280;67739;52.986;8.894;2023-06-14T05:46:25;101994.06;;;18.89;56.79
78444;BME280;67739;52.986;8.894;2023-06-14T05:48:52;101992.88;;;19.07;56.52
78444;BME280;67739;52.986;8.894;2023-06-14T05:51:17;101991.19;;;19.33;56.21
78444;BME280;67739;52.986;8.894;2023-06-14T05:53:49;101997.03;;;19.68;55.52
78444;BME280;67739;52.986;8.894;2023-06-14T05:56:15;101998.00;;;20.06;54.86
78444;BME280;67739;52.986;8.894;2023-06-14T05:58:42;101999.09;;;20.43;52.99
78444;BME280;67739;52.986;8.894;2023-06-14T06:01:08;102003.25;;;20.74;51.79
78444;BME280;67739;52.986;8.894;2023-06-14T06:03:33;102000.16;;;21.04;51.24
78444;BME280;67739;52.986;8.894;2023-06-14T06:05:59;102003.50;;;21.33;50.78
78444;BME280;67739;52.986;8.894;2023-06-14T06:08:25;101998.94;;;21.58;49.34
78444;BME280;67739;52.986;8.894;2023-06-14T06:10:51;102000.56;;;21.84;48.97
78444;BME280;67739;52.986;8.894;2023-06-14T06:13:16;101999.59;;;21.96;46.29
78444;BME280;67739;52.986;8.894;2023-06-14T06:15:42;101994.69;;;22.01;47.63
78444;BME280;67739;52.986;8.894;2023-06-14T06:18:07;102003.66;;;22.03;46.96
78444;BME280;67739;52.986;8.894;2023-06-14T06:20:32;101996.00;;;21.96;45.98
78444;BME280;67739;52.986;8.894;2023-06-14T06:22:58;102000.56;;;22.08;47.36
78444;BME280;67739;52.986;8.894;2023-06-14T06:25:25;102001.09;;;22.24;47.31
78444;BME280;67739;52.986;8.894;2023-06-14T06:27:51;102010.59;;;22.42;46.75
78444;BME280;67739;52.986;8.894;2023-06-14T06:30:18;102003.28;;;22.54;46.03
78444;BME280;67739;52.986;8.894;2023-06-14T06:32:43;102006.19;;;22.64;45.52
78444;BME280;67739;52.986;8.894;2023-06-14T06:35:09;102002.25;;;22.79;45.23
78444;BME280;67739;52.986;8.894;2023-06-14T06:37:36;102011.31;;;23.02;45.37
78444;BME280;67739;52.986;8.894;2023-06-14T06:40:01;102010.31;;;23.25;45.09
78444;BME280;67739;52.986;8.894;2023-06-14T06:42:31;102001.56;;;23.53;44.26
78444;BME280;67739;52.986;8.894;2023-06-14T06:44:57;102005.59;;;23.81;44.03
78444;BME280;67739;52.986;8.894;2023-06-14T06:47:22;102006.88;;;24.09;43.34
78444;BME280;67739;52.986;8.894;2023-06-14T06:49:47;102007.78;;;24.30;42.21
78444;BME280;67739;52.986;8.894;2023-06-14T06:52:13;102004.44;;;24.48;41.42
78444;BME280;67739;52.986;8.894;2023-06-14T06:54:39;102009.59;;;24.62;41.21
78444;BME280;67739;52.986;8.894;2023-06-14T06:57:04;102010.22;;;24.75;40.29
78444;BME280;67739;52.986;8.894;2023-06-14T06:59:31;102019.25;;;24.87;39.81
78444;BME280;67739;52.986;8.894;2023-06-14T07:01:56;102015.28;;;25.00;39.73
78444;BME280;67739;52.986;8.894;2023-06-14T07:04:22;102017.66;;;25.15;39.06
78444;BME280;67739;52.986;8.894;2023-06-14T07:06:47;102010.78;;;25.30;38.73
78444;BME280;67739;52.986;8.894;2023-06-14T07:09:13;102018.03;;;25.41;38.61
78444;BME280;67739;52.986;8.894;2023-06-14T07:11:39;102022.72;;;25.50;37.43
78444;BME280;67739;52.986;8.894;2023-06-14T07:14:05;102021.69;;;25.51;37.29
78444;BME280;67739;52.986;8.894;2023-06-14T07:16:31;102025.88;;;25.45;37.04
78444;BME280;67739;52.986;8.894;2023-06-14T07:18:56;102021.38;;;25.44;37.41
78444;BME280;67739;52.986;8.894;2023-06-14T07:21:21;102020.56;;;25.53;36.63
78444;BME280;67739;52.986;8.894;2023-06-14T07:23:47;102023.72;;;25.58;35.92
78444;BME280;67739;52.986;8.894;2023-06-14T07:26:12;102024.75;;;25.57;36.32
78444;BME280;67739;52.986;8.894;2023-06-14T07:28:38;102026.22;;;25.61;36.28
78444;BME280;67739;52.986;8.894;2023-06-14T07:31:03;102018.72;;;25.73;36.62
78444;BME280;67739;52.986;8.894;2023-06-14T07:33:28;102012.41;;;25.82;35.67
78444;BME280;67739;52.986;8.894;2023-06-14T07:35:54;102013.81;;;25.67;35.26
78444;BME280;67739;52.986;8.894;2023-06-14T07:38:19;102008.25;;;25.48;34.88
78444;BME280;67739;52.986;8.894;2023-06-14T07:40:47;102012.75;;;25.09;34.73
78444;BME280;67739;52.986;8.894;2023-06-14T07:43:13;102009.41;;;24.84;34.55
78444;BME280;67739;52.986;8.894;2023-06-14T07:45:38;102015.19;;;24.60;35.99
78444;BME280;67739;52.986;8.894;2023-06-14T07:48:04;102017.59;;;24.54;37.08
78444;BME280;67739;52.986;8.894;2023-06-14T07:50:29;102016.56;;;24.66;38.41
78444;BME280;67739;52.986;8.894;2023-06-14T07:52:55;102024.09;;;24.94;38.26
78444;BME280;67739;52.986;8.894;2023-06-14T07:55:20;102016.69;;;25.25;34.24
78444;BME280;67739;52.986;8.894;2023-06-14T07:57:45;102018.63;;;25.34;34.90
78444;BME280;67739;52.986;8.894;2023-06-14T08:00:11;102030.19;;;25.38;34.63
78444;BME280;67739;52.986;8.894;2023-06-14T08:02:43;102026.00;;;25.44;35.22
78444;BME280;67739;52.986;8.894;2023-06-14T08:05:12;102025.56;;;25.39;33.31
78444;BME280;67739;52.986;8.894;2023-06-14T08:07:41;102028.16;;;25.40;34.17
78444;BME280;67739;52.986;8.894;2023-06-14T08:10:07;102029.06;;;25.50;33.73
78444;BME280;67739;52.986;8.894;2023-06-14T08:12:33;102027.47;;;25.57;33.96
78444;BME280;67739;52.986;8.894;2023-06-14T08:14:59;102030.44;;;25.65;33.87
78444;BME280;67739;52.986;8.894;2023-06-14T08:17:25;102018.16;;;25.79;33.17
78444;BME280;67739;52.986;8.894;2023-06-14T08:19:50;102019.91;;;25.80;32.90
78444;BME280;67739;52.986;8.894;2023-06-14T08:22:16;102030.59;;;25.83;33.36
78444;BME280;67739;52.986;8.894;2023-06-14T08:24:44;102014.22;;;25.62;31.63
78444;BME280;67739;52.986;8.894;2023-06-14T08:27:10;102014.72;;;25.37;33.27
78444;BME280;67739;52.986;8.894;2023-06-14T08:29:38;102017.00;;;25.32;33.70
78444;BME280;67739;52.986;8.894;2023-06-14T08:32:06;102025.28;;;25.42;34.31
78444;BME280;67739;52.986;8.894;2023-06-14T08:34:31;102022.06;;;25.67;35.18
78444;BME280;67739;52.986;8.894;2023-06-14T08:36:57;102022.22;;;25.94;34.68
78444;BME280;67739;52.986;8.894;2023-06-14T08:39:22;102022.06;;;26.15;33.54
78444;BME280;67739;52.986;8.894;2023-06-14T08:41:48;102017.63;;;26.33;33.33
78444;BME280;67739;52.986;8.894;2023-06-14T08:44:15;102020.78;;;26.48;33.61
78444;BME280;67739;52.986;8.894;2023-06-14T08:46:41;102022.38;;;26.41;32.88
78444;BME280;67739;52.986;8.894;2023-06-14T08:49:10;102018.59;;;26.42;33.18
78444;BME280;67739;52.986;8.894;2023-06-14T08:51:39;102023.13;;;26.33;32.83
78444;BME280;67739;52.986;8.894;2023-06-14T08:54:07;102014.44;;;26.38;33.46
78444;BME280;67739;52.986;8.894;2023-06-14T08:56:33;102017.31;;;26.46;33.32
78444;BME280;67739;52.986;8.894;2023-06-14T08:58:59;102018.63;;;26.52;33.39
78444;BME280;67739;52.986;8.894;2023-06-14T09:01:36;102020.47;;;26.61;32.67
78444;BME280;67739;52.986;8.894;2023-06-14T09:04:02;102019.44;;;26.62;32.72
78444;BME280;67739;52.986;8.894;2023-06-14T09:06:28;102023.34;;;26.69;33.11
78444;BME280;67739;52.986;8.894;2023-06-14T09:08:54;102028.53;;;26.72;32.39
78444;BME280;67739;52.986;8.894;2023-06-14T09:11:22;102034.63;;;26.75;32.77
78444;BME280;67739;52.986;8.894;2023-06-14T09:13:48;102027.81;;;26.80;32.33
78444;BME280;67739;52.986;8.894;2023-06-14T09:16:14;102033.31;;;26.80;32.40
78444;BME280;67739;52.986;8.894;2023-06-14T09:18:41;102029.97;;;26.95;32.74
78444;BME280;67739;52.986;8.894;2023-06-14T09:21:08;102022.97;;;27.10;31.99
78444;BME280;67739;52.986;8.894;2023-06-14T09:23:38;102026.00;;;27.07;31.77
78444;BME280;67739;52.986;8.894;2023-06-14T09:26:08;102023.00;;;26.91;31.85
78444;BME280;67739;52.986;8.894;2023-06-14T09:28:34;102029.09;;;26.85;32.86
78444;BME280;67739;52.986;8.894;2023-06-14T09:31:00;102027.94;;;26.97;31.68
78444;BME280;67739;52.986;8.894;2023-06-14T09:33:26;102017.03;;;27.05;32.44
78444;BME280;67739;52.986;8.894;2023-06-14T09:35:53;102012.97;;;27.09;31.12
78444;BME280;67739;52.986;8.894;2023-06-14T09:38:19;102014.41;;;27.04;31.39
78444;BME280;67739;52.986;8.894;2023-06-14T09:40:44;102017.63;;;26.90;32.57
78444;BME280;67739;52.986;8.894;2023-06-14T09:43:09;102015.31;;;26.85;31.10
78444;BME280;67739;52.986;8.894;2023-06-14T09:45:35;102015.75;;;26.90;32.29
78444;BME280;67739;52.986;8.894;2023-06-14T09:48:01;102002.59;;;26.94;32.01
78444;BME280;67739;52.986;8.894;2023-06-14T09:50:27;102013.69;;;27.02;32.43
78444;BME280;67739;52.986;8.894;2023-06-14T09:52:53;102012.97;;;27.09;32.04
78444;BME280;67739;52.986;8.894;2023-06-14T09:55:21;102010.34;;;27.08;30.85
78444;BME280;67739;52.986;8.894;2023-06-14T09:57:47;102010.22;;;27.00;31.88
78444;BME280;67739;52.986;8.894;2023-06-14T10:00:15;102007.28;;;27.11;32.95
78444;BME280;67739;52.986;8.894;2023-06-14T10:02:45;102009.34;;;27.36;33.08
78444;BME280;67739;52.986;8.894;2023-06-14T10:05:17;102022.88;;;27.57;32.25
78444;BME280;67739;52.986;8.894;2023-06-14T10:07:58;102009.97;;;27.75;31.30
78444;BME280;67739;52.986;8.894;2023-06-14T10:10:24;102012.84;;;27.84;31.37
78444;BME280;67739;52.986;8.894;2023-06-14T10:12:50;102000.69;;;27.94;30.58
78444;BME280;67739;52.986;8.894;2023-06-14T10:15:21;102009.91;;;28.03;31.56
78444;BME280;67739;52.986;8.894;2023-06-14T10:18:11;102013.97;;;28.26;32.20
78444;BME280;67739;52.986;8.894;2023-06-14T10:21:04;102002.78;;;28.54;30.67
78444;BME280;67739;52.986;8.894;2023-06-14T10:23:37;101994.94;;;28.67;29.39
78444;BME280;67739;52.986;8.894;2023-06-14T10:26:03;101996.66;;;28.68;29.87
78444;BME280;67739;52.986;8.894;2023-06-14T10:28:28;101991.16;;;28.68;30.30
78444;BME280;67739;52.986;8.894;2023-06-14T10:31:11;101987.34;;;28.69;28.65
78444;BME280;67739;52.986;8.894;2023-06-14T10:33:39;101996.75;;;28.58;30.32
78444;BME280;67739;52.986;8.894;2023-06-14T10:39:06;101990.25;;;28.85;30.58
78444;BME280;67739;52.986;8.894;2023-06-14T10:41:37;101992.75;;;29.04;30.19
78444;BME280;67739;52.986;8.894;2023-06-14T10:46:58;101978.63;;;29.49;28.61
78444;BME280;67739;52.986;8.894;2023-06-14T10:49:43;101976.94;;;29.73;29.43
78444;BME280;67739;52.986;8.894;2023-06-14T10:52:14;101988.56;;;29.93;28.82
78444;BME280;67739;52.986;8.894;2023-06-14T10:57:24;101976.50;;;30.26;27.95
78444;BME280;67739;52.986;8.894;2023-06-14T10:59:50;101973.72;;;30.34;28.11
78444;BME280;67739;52.986;8.894;2023-06-14T11:04:48;101972.31;;;30.63;27.21
78444;BME280;67739;52.986;8.894;2023-06-14T11:12:54;101959.00;;;30.01;28.50
78444;BME280;67739;52.986;8.894;2023-06-14T11:15:19;101967.66;;;30.06;28.20
78444;BME280;67739;52.986;8.894;2023-06-14T11:17:55;101959.22;;;30.00;27.01
78444;BME280;67739;52.986;8.894;2023-06-14T11:20:27;101952.25;;;29.96;28.02
78444;BME280;67739;52.986;8.894;2023-06-14T11:22:53;101963.66;;;29.93;27.26
78444;BME280;67739;52.986;8.894;2023-06-14T11:25:19;101951.88;;;29.90;27.80
78444;BME280;67739;52.986;8.894;2023-06-14T11:27:45;101955.41;;;30.01;28.25
78444;BME280;67739;52.986;8.894;2023-06-14T11:30:12;101949.66;;;30.18;28.20
78444;BME280;67739;52.986;8.894;2023-06-14T11:32:38;101951.56;;;30.42;27.60
78444;BME280;67739;52.986;8.894;2023-06-14T11:35:04;101949.16;;;30.55;27.20
78444;BME280;67739;52.986;8.894;2023-06-14T11:37:30;101951.22;;;30.37;26.45
78444;BME280;67739;52.986;8.894;2023-06-14T11:39:58;101947.78;;;30.03;26.91
78444;BME280;67739;52.986;8.894;2023-06-14T11:42:26;101948.25;;;29.58;28.09
78444;BME280;67739;52.986;8.894;2023-06-14T11:44:53;101934.31;;;29.33;28.37
78444;BME280;67739;52.986;8.894;2023-06-14T11:47:18;101943.00;;;29.38;28.48
78444;BME280;67739;52.986;8.894;2023-06-14T11:49:43;101948.03;;;29.51;28.33
78444;BME280;67739;52.986;8.894;2023-06-14T11:52:09;101937.50;;;29.63;28.64
78444;BME280;67739;52.986;8.894;2023-06-14T11:54:35;101940.09;;;29.72;28.00
78444;BME280;67739;52.986;8.894;2023-06-14T11:57:00;101931.84;;;29.80;27.90
78444;BME280;67739;52.986;8.894;2023-06-14T11:59:25;101933.06;;;29.94;28.08
78444;BME280;67739;52.986;8.894;2023-06-14T12:01:55;101934.78;;;30.19;28.39
78444;BME280;67739;52.986;8.894;2023-06-14T12:04:24;101932.16;;;30.50;27.72
78444;BME280;67739;52.986;8.894;2023-06-14T12:06:50;101930.25;;;30.67;27.38
78444;BME280;67739;52.986;8.894;2023-06-14T12:09:18;101928.47;;;30.82;27.20
78444;BME280;67739;52.986;8.894;2023-06-14T12:11:45;101938.97;;;30.95;27.27
78444;BME280;67739;52.986;8.894;2023-06-14T12:14:10;101927.19;;;31.01;26.97
78444;BME280;67739;52.986;8.894;2023-06-14T12:16:38;101927.66;;;31.05;26.71
78444;BME280;67739;52.986;8.894;2023-06-14T12:19:15;101925.94;;;31.12;26.42
78444;BME280;67739;52.986;8.894;2023-06-14T12:21:43;101931.66;;;31.10;25.64
78444;BME280;67739;52.986;8.894;2023-06-14T12:24:12;101925.81;;;30.97;24.96
78444;BME280;67739;52.986;8.894;2023-06-14T12:26:38;101935.25;;;30.64;25.61
78444;BME280;67739;52.986;8.894;2023-06-14T12:29:06;101921.44;;;30.31;27.51
78444;BME280;67739;52.986;8.894;2023-06-14T12:31:32;101920.44;;;30.24;27.66
78444;BME280;67739;52.986;8.894;2023-06-14T12:33:57;101923.34;;;30.39;27.16
78444;BME280;67739;52.986;8.894;2023-06-14T12:36:23;101920.72;;;30.62;27.04
78444;BME280;67739;52.986;8.894;2023-06-14T12:38:48;101925.41;;;30.69;26.39
78444;BME280;67739;52.986;8.894;2023-06-14T12:41:14;101925.25;;;30.54;27.12
78444;BME280;67739;52.986;8.894;2023-06-14T12:43:40;101920.97;;;30.03;27.28
78444;BME280;67739;52.986;8.894;2023-06-14T12:46:05;101922.09;;;29.44;27.71
78444;BME280;67739;52.986;8.894;2023-06-14T12:48:30;101921.88;;;28.61;28.33
78444;BME280;67739;52.986;8.894;2023-06-14T12:50:56;101919.41;;;28.06;29.52
78444;BME280;67739;52.986;8.894;2023-06-14T12:53:22;101922.75;;;27.92;31.33
78444;BME280;67739;52.986;8.894;2023-06-14T12:55:48;101925.03;;;27.97;30.43
78444;BME280;67739;52.986;8.894;2023-06-14T12:58:13;101926.06;;;27.96;30.33
78444;BME280;67739;52.986;8.894;2023-06-14T13:00:39;101933.47;;;27.77;30.72
78444;BME280;67739;52.986;8.894;2023-06-14T13:03:05;101928.16;;;27.49;31.11
78444;BME280;67739;52.986;8.894;2023-06-14T13:05:30;101927.59;;;27.45;31.88
78444;BME280;67739;52.986;8.894;2023-06-14T13:07:58;101929.13;;;27.75;30.93
78444;BME280;67739;52.986;8.894;2023-06-14T13:10:24;101918.59;;;28.14;30.56